Time;durP1;ratioP1;P1;durP2;ratioP2;P2;SDS_P1;SDS_P2;PMS_P1;PMS_P2;Temp;Humidity;BMP_temperature;BMP_pressure;BME280_temperature;BME280_humidity;BME280_pressure;Samples;Min_cycle;Max_cycle;Signal;HPM_P1;HPM_P2
2023/12/20 00:01:31;;;;;;;7.30;3.92;;;8.40;99.90;;;;;;4970357;28;20026;-86
2023/12/20 00:03:57;;;;;;;10.30;5.45;;;8.30;99.90;;;;;;4970797;28;20470;-88
2023/12/20 00:06:22;;;;;;;7.72;3.83;;;8.30;99.90;;;;;;4967347;28;20081;-86
2023/12/20 00:08:48;;;;;;;6.20;3.70;;;8.30;99.90;;;;;;4971083;28;20520;-84
2023/12/20 00:11:14;;;;;;;6.50;4.10;;;8.30;99.90;;;;;;4952122;28;20034;-85
2023/12/20 00:13:39;;;;;;;6.68;3.67;;;8.30;99.90;;;;;;4970907;28;20073;-86
2023/12/20 00:16:05;;;;;;;6.45;3.50;;;8.30;99.90;;;;;;4970896;28;20023;-85
2023/12/20 00:18:30;;;;;;;7.35;4.10;;;8.30;99.90;;;;;;4953364;28;20023;-86
2023/12/20 00:20:56;;;;;;;7.57;3.88;;;8.30;99.90;;;;;;4953070;28;20026;-86
2023/12/20 00:23:23;;;;;;;8.80;4.13;;;8.30;99.90;;;;;;4969866;28;20111;-85
2023/12/20 00:25:48;;;;;;;6.35;3.42;;;8.30;99.90;;;;;;4953236;28;20035;-86
2023/12/20 00:28:14;;;;;;;8.25;3.67;;;8.30;99.90;;;;;;4970878;28;20489;-86
2023/12/20 00:30:39;;;;;;;5.40;3.58;;;8.30;99.90;;;;;;4970414;28;20449;-85
2023/12/20 00:33:05;;;;;;;6.22;4.13;;;8.30;99.90;;;;;;4953026;28;20489;-86
2023/12/20 00:35:30;;;;;;;5.07;2.95;;;8.30;99.90;;;;;;4967083;28;20034;-86
2023/12/20 00:37:58;;;;;;;6.75;3.83;;;8.30;99.90;;;;;;4970321;28;20019;-85
2023/12/20 00:40:24;;;;;;;6.25;3.50;;;8.30;99.90;;;;;;4970335;28;20018;-85
2023/12/20 00:42:49;;;;;;;6.00;3.85;;;8.30;99.90;;;;;;4970231;28;20081;-86
2023/12/20 00:45:15;;;;;;;6.30;3.67;;;8.30;99.90;;;;;;4969504;28;20027;-85
2023/12/20 00:47:40;;;;;;;5.65;3.63;;;8.30;99.90;;;;;;4970613;28;20097;-85
2023/12/20 00:50:07;;;;;;;10.02;4.00;;;8.30;99.90;;;;;;4970206;28;20081;-86
2023/12/20 00:52:32;;;;;;;5.47;3.20;;;8.30;99.90;;;;;;4952806;28;20027;-87
2023/12/20 00:54:58;;;;;;;4.65;3.25;;;8.30;99.90;;;;;;4970692;28;20069;-86
2023/12/20 00:57:23;;;;;;;6.70;3.13;;;8.30;99.90;;;;;;4955703;28;20027;-86
2023/12/20 00:59:49;;;;;;;7.50;3.60;;;8.30;99.90;;;;;;4973905;28;20023;-85
2023/12/20 01:02:14;;;;;;;5.45;3.03;;;8.30;99.90;;;;;;4958111;28;20062;-85
2023/12/20 01:04:40;;;;;;;4.60;3.15;;;8.30;99.90;;;;;;4974269;28;20048;-84
2023/12/20 01:07:05;;;;;;;5.68;2.78;;;8.30;99.90;;;;;;4956764;28;20034;-86
2023/12/20 01:09:31;;;;;;;5.57;3.10;;;8.30;99.90;;;;;;4971089;28;20042;-86
2023/12/20 01:11:56;;;;;;;5.78;2.95;;;8.30;99.90;;;;;;4956641;28;20026;-86
2023/12/20 01:14:22;;;;;;;8.25;2.90;;;8.30;99.90;;;;;;4973608;28;20031;-84
2023/12/20 01:16:48;;;;;;;4.10;2.78;;;8.30;99.90;;;;;;4974218;28;20058;-87
2023/12/20 01:19:14;;;;;;;5.78;2.72;;;8.30;99.90;;;;;;4954854;28;20535;-85
2023/12/20 01:21:39;;;;;;;4.35;2.85;;;8.30;99.90;;;;;;4955952;28;20014;-84
2023/12/20 01:24:05;;;;;;;5.68;3.22;;;8.30;99.90;;;;;;4954013;28;20066;-85
2023/12/20 01:26:31;;;;;;;6.45;3.13;;;8.30;99.90;;;;;;4973729;28;20018;-86
2023/12/20 01:28:57;;;;;;;8.63;3.08;;;8.30;99.90;;;;;;4973900;28;20019;-86
2023/12/20 01:31:22;;;;;;;4.82;3.05;;;8.30;99.90;;;;;;4955800;28;20029;-86
2023/12/20 01:33:48;;;;;;;5.65;2.85;;;8.30;99.90;;;;;;4956518;28;20022;-84
2023/12/20 01:36:13;;;;;;;3.63;2.80;;;8.30;99.90;;;;;;4972829;28;20023;-86
2023/12/20 01:38:39;;;;;;;6.00;2.85;;;8.30;99.90;;;;;;4975368;28;20023;-85
2023/12/20 01:41:04;;;;;;;5.97;2.70;;;8.30;99.90;;;;;;4973684;28;20065;-85
2023/12/20 01:43:30;;;;;;;3.50;2.47;;;8.30;99.90;;;;;;4958468;28;20106;-86
2023/12/20 01:46:00;;;;;;;4.65;3.10;;;8.30;99.90;;;;;;4973580;28;20030;-85
2023/12/20 01:48:27;;;;;;;5.23;2.90;;;8.30;99.90;;;;;;4973690;28;20384;-84
2023/12/20 01:50:53;;;;;;;3.60;2.50;;;8.30;99.90;;;;;;4972789;28;20027;-85
2023/12/20 01:53:21;;;;;;;4.13;2.40;;;8.30;99.90;;;;;;4961722;28;20085;-86
2023/12/20 01:55:49;;;;;;;2.75;2.05;;;8.30;99.90;;;;;;4958767;28;20114;-86
2023/12/20 01:58:15;;;;;;;3.83;2.67;;;8.30;99.90;;;;;;4953773;28;20050;-85
2023/12/20 02:00:41;;;;;;;6.30;3.20;;;8.30;99.90;;;;;;4968671;28;20122;-86
2023/12/20 02:03:07;;;;;;;3.55;2.47;;;8.30;99.90;;;;;;4973411;28;20034;-86
2023/12/20 02:05:35;;;;;;;4.40;2.42;;;8.30;99.90;;;;;;4974054;28;20023;-86
2023/12/20 02:08:00;;;;;;;4.25;2.70;;;8.30;99.90;;;;;;4972837;28;20517;-86
2023/12/20 02:10:26;;;;;;;4.60;2.88;;;8.30;99.90;;;;;;4957056;28;20059;-85
2023/12/20 02:12:52;;;;;;;4.70;2.65;;;8.30;99.90;;;;;;4955717;28;20034;-85
2023/12/20 02:15:18;;;;;;;6.07;2.70;;;8.30;99.90;;;;;;4952001;28;20408;-86
2023/12/20 02:17:45;;;;;;;4.65;2.60;;;8.20;99.90;;;;;;4958826;28;20027;-85
2023/12/20 02:20:10;;;;;;;4.95;2.00;;;8.30;99.90;;;;;;4956773;28;20026;-87
2023/12/20 02:22:36;;;;;;;3.97;2.40;;;8.30;99.90;;;;;;4954726;28;20033;-86
2023/12/20 02:25:01;;;;;;;3.22;2.45;;;8.30;99.90;;;;;;4969300;28;20097;-85
2023/12/20 02:27:28;;;;;;;3.42;2.15;;;8.30;99.90;;;;;;4972974;28;20671;-86
2023/12/20 02:29:54;;;;;;;2.33;1.90;;;8.30;99.90;;;;;;4955410;28;20030;-85
2023/12/20 02:32:20;;;;;;;3.13;2.38;;;8.30;99.90;;;;;;4954641;28;20027;-86
2023/12/20 02:34:48;;;;;;;3.45;2.50;;;8.30;99.90;;;;;;4972723;28;20098;-85
2023/12/20 02:37:13;;;;;;;5.53;2.30;;;8.30;99.90;;;;;;4972726;28;20037;-85
2023/12/20 02:39:39;;;;;;;3.00;2.40;;;8.30;99.90;;;;;;4972108;28;20023;-86
2023/12/20 02:42:04;;;;;;;7.18;2.10;;;8.30;99.90;;;;;;4960447;28;20021;-85
2023/12/20 02:44:30;;;;;;;3.30;2.30;;;8.30;99.90;;;;;;4972702;28;20031;-84
2023/12/20 02:46:55;;;;;;;2.97;2.05;;;8.30;99.90;;;;;;4970819;28;20540;-86
2023/12/20 02:49:21;;;;;;;4.05;2.47;;;8.30;99.90;;;;;;4968435;28;20505;-86
2023/12/20 02:51:47;;;;;;;2.47;2.00;;;8.30;99.90;;;;;;4971889;28;20035;-85
2023/12/20 02:54:12;;;;;;;5.10;2.17;;;8.30;99.90;;;;;;4960823;28;20027;-86
2023/12/20 02:56:38;;;;;;;2.80;2.15;;;8.30;99.90;;;;;;4957503;28;20085;-86
2023/12/20 02:59:05;;;;;;;3.75;2.55;;;8.30;99.90;;;;;;4972861;28;20027;-86
2023/12/20 03:01:31;;;;;;;2.30;1.88;;;8.30;99.90;;;;;;4971513;28;20030;-85
2023/12/20 03:03:57;;;;;;;2.15;1.95;;;8.30;99.90;;;;;;4970441;28;20030;-86
2023/12/20 03:06:22;;;;;;;3.10;2.10;;;8.30;99.90;;;;;;4971989;28;20030;-87
2023/12/20 03:08:48;;;;;;;4.22;2.45;;;8.30;99.90;;;;;;4972188;28;20023;-86
2023/12/20 03:11:13;;;;;;;2.58;1.92;;;8.30;99.90;;;;;;4954165;28;20019;-85
2023/12/20 03:13:39;;;;;;;3.35;2.00;;;8.30;99.90;;;;;;4972578;28;20054;-85
2023/12/20 03:16:12;;;;;;;5.20;2.20;;;8.30;99.90;;;;;;4955232;28;20380;-86
2023/12/20 03:18:37;;;;;;;3.70;2.10;;;8.30;99.90;;;;;;4967862;28;20022;-86
2023/12/20 03:21:04;;;;;;;2.53;2.10;;;8.30;99.90;;;;;;4972183;28;20034;-86
2023/12/20 03:23:32;;;;;;;3.60;2.53;;;8.30;99.90;;;;;;4968521;28;20030;-86
2023/12/20 03:25:58;;;;;;;22.10;3.15;;;8.30;99.90;;;;;;4971562;28;20061;-86
2023/12/20 03:28:23;;;;;;;3.60;2.20;;;8.30;99.90;;;;;;4972026;28;20058;-87
2023/12/20 03:30:49;;;;;;;4.45;2.60;;;8.30;99.90;;;;;;4971062;28;20023;-84
2023/12/20 03:33:15;;;;;;;4.53;2.55;;;8.30;99.90;;;;;;4954832;28;20031;-86
2023/12/20 03:35:41;;;;;;;3.03;2.42;;;8.30;99.90;;;;;;4954521;28;20388;-85
2023/12/20 03:38:06;;;;;;;3.67;2.30;;;8.30;99.90;;;;;;4971482;28;20023;-85
2023/12/20 03:40:32;;;;;;;4.53;2.47;;;8.30;99.90;;;;;;4970633;28;20019;-86
2023/12/20 03:42:57;;;;;;;4.32;2.42;;;8.30;99.90;;;;;;4955944;28;20408;-83
2023/12/20 03:45:23;;;;;;;3.30;2.10;;;8.30;99.90;;;;;;4971677;28;20428;-85
2023/12/20 03:47:49;;;;;;;7.43;2.33;;;8.30;99.90;;;;;;4951515;28;20082;-85
2023/12/20 03:50:15;;;;;;;3.65;2.60;;;8.30;99.90;;;;;;4955035;28;20060;-85
2023/12/20 03:52:40;;;;;;;2.95;2.03;;;8.30;99.90;;;;;;4954067;28;20050;-86
2023/12/20 03:55:06;;;;;;;3.05;1.85;;;8.30;99.90;;;;;;4970699;28;20038;-83
2023/12/20 03:57:31;;;;;;;3.08;2.22;;;8.30;99.90;;;;;;4970874;28;20102;-84
2023/12/20 03:59:57;;;;;;;2.80;2.33;;;8.30;99.90;;;;;;4969532;28;20027;-87
2023/12/20 04:02:22;;;;;;;2.33;1.88;;;8.30;99.90;;;;;;4971008;28;20047;-85
2023/12/20 04:04:48;;;;;;;3.42;2.03;;;8.30;99.90;;;;;;4970733;28;20065;-86
2023/12/20 04:07:14;;;;;;;3.42;2.00;;;8.30;99.90;;;;;;4969308;28;20027;-84
2023/12/20 04:09:41;;;;;;;2.53;2.08;;;8.40;99.90;;;;;;4953689;28;20019;-85
2023/12/20 04:12:06;;;;;;;3.72;2.28;;;8.30;99.90;;;;;;4952837;28;20086;-85
2023/12/20 04:14:32;;;;;;;3.35;2.20;;;8.30;99.90;;;;;;4953756;28;20636;-86
2023/12/20 04:16:58;;;;;;;3.50;2.30;;;8.30;99.90;;;;;;4954249;28;20035;-85
2023/12/20 04:19:23;;;;;;;3.35;2.15;;;8.30;99.90;;;;;;4967516;28;20392;-86
2023/12/20 04:21:49;;;;;;;2.50;1.83;;;8.30;99.90;;;;;;4970583;28;20027;-85
2023/12/20 04:24:14;;;;;;;2.55;2.10;;;8.30;99.90;;;;;;4966041;28;20482;-86
2023/12/20 04:26:40;;;;;;;2.30;1.80;;;8.30;99.90;;;;;;4968182;28;20680;-84
2023/12/20 04:29:05;;;;;;;3.17;2.15;;;8.30;99.90;;;;;;4970862;28;20030;-84
2023/12/20 04:31:31;;;;;;;2.17;1.90;;;8.30;99.90;;;;;;4951635;28;20062;-86
2023/12/20 04:33:56;;;;;;;2.85;2.03;;;8.30;99.90;;;;;;4970534;28;20102;-86
2023/12/20 04:36:22;;;;;;;2.28;1.75;;;8.30;99.90;;;;;;4970303;28;20027;-86
2023/12/20 04:38:47;;;;;;;3.83;2.17;;;8.30;99.90;;;;;;4953090;28;20027;-85
2023/12/20 04:41:15;;;;;;;3.42;2.10;;;8.30;99.90;;;;;;4966712;28;20047;-85
2023/12/20 04:43:41;;;;;;;4.43;2.10;;;8.30;99.90;;;;;;4968565;28;20019;-86
2023/12/20 04:46:07;;;;;;;3.78;2.40;;;8.30;99.90;;;;;;4954641;28;20039;-86
2023/12/20 04:48:32;;;;;;;2.40;2.00;;;8.40;99.90;;;;;;4952172;28;20023;-86
2023/12/20 04:50:58;;;;;;;3.90;2.60;;;8.30;99.90;;;;;;4969834;28;20019;-87
2023/12/20 04:53:23;;;;;;;3.45;2.10;;;8.30;99.90;;;;;;4970589;28;20472;-85
2023/12/20 04:55:49;;;;;;;2.28;1.98;;;8.30;99.90;;;;;;4953191;28;20516;-86
2023/12/20 04:58:14;;;;;;;3.63;2.35;;;8.40;99.90;;;;;;4969595;28;20027;-85
2023/12/20 05:00:40;;;;;;;2.45;1.80;;;8.40;99.90;;;;;;4969772;28;20043;-86
2023/12/20 05:03:05;;;;;;;3.10;1.85;;;8.30;99.90;;;;;;4968733;28;20029;-86
2023/12/20 05:05:31;;;;;;;2.78;1.95;;;8.40;99.90;;;;;;4970127;28;20062;-85
2023/12/20 05:07:57;;;;;;;3.35;1.85;;;8.40;99.90;;;;;;4971296;28;20030;-87
2023/12/20 05:10:22;;;;;;;4.20;2.33;;;8.30;99.90;;;;;;4951823;28;20137;-86
2023/12/20 05:12:48;;;;;;;2.53;2.05;;;8.30;99.90;;;;;;4970166;28;20392;-86
2023/12/20 05:15:13;;;;;;;2.72;1.90;;;8.30;99.90;;;;;;4969971;28;20574;-86
2023/12/20 05:17:39;;;;;;;2.65;1.73;;;8.30;99.90;;;;;;4970166;28;20187;-85
2023/12/20 05:20:06;;;;;;;3.58;1.80;;;8.30;99.90;;;;;;4951525;28;20023;-87
2023/12/20 05:22:31;;;;;;;4.53;1.90;;;8.30;99.90;;;;;;4967991;28;20034;-86
2023/12/20 05:24:57;;;;;;;4.53;1.67;;;8.40;99.90;;;;;;4952768;28;20023;-86
2023/12/20 05:27:22;;;;;;;2.30;1.67;;;8.30;99.90;;;;;;4952898;28;20022;-84
2023/12/20 05:29:48;;;;;;;1.92;1.73;;;8.30;99.90;;;;;;4949971;28;20034;-85
2023/12/20 05:32:13;;;;;;;5.10;2.05;;;8.40;99.90;;;;;;4968701;28;20038;-85
2023/12/20 05:34:39;;;;;;;2.78;1.85;;;8.30;99.90;;;;;;4952885;28;20027;-86
2023/12/20 05:37:04;;;;;;;2.42;1.50;;;8.30;99.90;;;;;;4970861;28;20072;-84
2023/12/20 05:39:30;;;;;;;2.05;1.85;;;8.30;99.90;;;;;;4954093;28;20041;-85
2023/12/20 05:41:56;;;;;;;2.88;1.67;;;8.30;99.90;;;;;;4952697;28;20481;-85
2023/12/20 05:44:22;;;;;;;3.00;1.85;;;8.30;99.90;;;;;;4975147;28;20019;-86
2023/12/20 05:46:47;;;;;;;1.70;1.50;;;8.30;99.90;;;;;;4972692;28;20023;-87
2023/12/20 05:49:13;;;;;;;2.50;1.85;;;8.40;99.90;;;;;;4972644;28;20074;-85
2023/12/20 05:51:39;;;;;;;1.75;1.45;;;8.30;99.90;;;;;;4973305;28;20101;-86
2023/12/20 05:54:04;;;;;;;3.50;1.67;;;8.30;99.90;;;;;;4973156;28;20097;-87
2023/12/20 05:56:30;;;;;;;4.25;1.70;;;8.30;99.90;;;;;;4969839;28;20084;-86
2023/12/20 05:58:55;;;;;;;3.53;1.65;;;8.40;99.90;;;;;;4972425;28;20493;-87
2023/12/20 06:01:21;;;;;;;2.10;1.55;;;8.30;99.90;;;;;;4972138;28;20027;-86
2023/12/20 06:03:47;;;;;;;1.50;1.40;;;8.30;99.90;;;;;;4973424;28;20497;-87
2023/12/20 06:06:15;;;;;;;2.00;1.30;;;8.40;99.90;;;;;;4973432;28;20018;-85
2023/12/20 06:08:41;;;;;;;3.58;1.50;;;8.40;99.90;;;;;;4971246;28;20023;-86
2023/12/20 06:11:06;;;;;;;1.92;1.30;;;8.40;99.90;;;;;;4969870;28;20452;-86
2023/12/20 06:13:32;;;;;;;2.20;1.40;;;8.30;99.90;;;;;;4972077;28;20026;-85
2023/12/20 06:15:57;;;;;;;1.20;1.10;;;8.40;99.90;;;;;;4972641;28;20064;-87
2023/12/20 06:18:24;;;;;;;1.30;1.20;;;8.30;99.90;;;;;;4955503;28;20062;-87
2023/12/20 06:20:49;;;;;;;3.08;1.10;;;8.30;99.90;;;;;;4972820;28;20033;-85
2023/12/20 06:23:15;;;;;;;1.42;1.10;;;8.40;99.90;;;;;;4955279;28;20118;-86
2023/12/20 06:25:41;;;;;;;2.03;1.25;;;8.30;99.90;;;;;;4971200;28;20034;-86
2023/12/20 06:28:06;;;;;;;0.80;0.80;;;8.40;99.90;;;;;;4957458;28;20045;-86
2023/12/20 06:30:33;;;;;;;2.15;1.33;;;8.40;99.90;;;;;;4972342;28;20058;-85
2023/12/20 06:32:58;;;;;;;1.10;1.00;;;8.40;99.90;;;;;;4968602;28;20034;-87
2023/12/20 06:35:24;;;;;;;3.42;1.10;;;8.40;99.90;;;;;;4957192;28;20018;-86
2023/12/20 06:37:50;;;;;;;1.52;1.30;;;8.30;99.90;;;;;;4954940;28;20023;-86
2023/12/20 06:40:16;;;;;;;3.78;1.00;;;8.30;99.90;;;;;;4971687;28;20366;-87
2023/12/20 06:42:41;;;;;;;1.30;1.10;;;8.30;99.90;;;;;;4956151;28;20027;-86
2023/12/20 06:45:07;;;;;;;2.13;0.98;;;8.40;99.90;;;;;;4972800;28;20849;-86
2023/12/20 06:47:33;;;;;;;1.58;1.20;;;8.30;99.90;;;;;;4971396;28;20027;-85
2023/12/20 06:49:58;;;;;;;2.45;0.90;;;8.40;99.90;;;;;;4969350;28;20105;-86
2023/12/20 06:52:24;;;;;;;2.08;1.10;;;8.40;99.90;;;;;;4955183;28;20106;-87
2023/12/20 06:54:49;;;;;;;2.30;1.20;;;8.30;99.90;;;;;;4954840;28;20023;-86
2023/12/20 06:57:15;;;;;;;3.00;1.30;;;8.40;99.90;;;;;;4971483;28;20018;-86
2023/12/20 06:59:41;;;;;;;2.08;1.27;;;8.30;99.90;;;;;;4968439;28;20019;-86
2023/12/20 07:02:07;;;;;;;1.90;1.20;;;8.40;99.90;;;;;;4956451;28;20030;-84
2023/12/20 07:04:33;;;;;;;1.45;1.25;;;8.30;99.90;;;;;;4971797;28;20042;-87
2023/12/20 07:07:00;;;;;;;3.08;1.45;;;8.30;99.90;;;;;;4971389;28;20038;-85
2023/12/20 07:09:26;;;;;;;1.95;1.30;;;8.40;99.90;;;;;;4954530;28;20027;-85
2023/12/20 07:11:52;;;;;;;3.08;1.20;;;8.30;99.90;;;;;;4971050;28;20556;-86
2023/12/20 07:14:18;;;;;;;2.58;1.27;;;8.40;99.90;;;;;;4969869;28;20500;-87
2023/12/20 07:16:43;;;;;;;1.10;1.00;;;8.40;99.90;;;;;;4954374;28;20034;-85
2023/12/20 07:19:09;;;;;;;1.02;0.93;;;8.40;99.90;;;;;;4954324;28;20026;-86
2023/12/20 07:21:34;;;;;;;1.52;1.42;;;8.30;99.90;;;;;;4952618;28;20019;-87
2023/12/20 07:24:00;;;;;;;1.20;1.10;;;8.30;99.90;;;;;;4955098;28;20049;-87
2023/12/20 07:26:25;;;;;;;1.67;1.50;;;8.40;99.90;;;;;;4970406;28;20023;-86
2023/12/20 07:28:51;;;;;;;1.30;1.20;;;8.40;99.90;;;;;;4970288;28;20030;-85
2023/12/20 07:31:16;;;;;;;2.25;1.40;;;8.40;99.90;;;;;;4971233;28;20105;-86
2023/12/20 07:33:42;;;;;;;1.42;1.20;;;8.40;99.90;;;;;;4971787;28;20053;-85
2023/12/20 07:36:08;;;;;;;2.53;1.33;;;8.30;99.90;;;;;;4969867;28;20396;-85
2023/12/20 07:38:33;;;;;;;2.53;1.50;;;8.40;99.90;;;;;;4954100;28;20034;-86
2023/12/20 07:40:59;;;;;;;2.85;1.65;;;8.40;99.90;;;;;;4965648;28;20397;-87
2023/12/20 07:43:25;;;;;;;3.88;1.63;;;8.40;99.90;;;;;;4962363;28;20090;-86
2023/12/20 07:45:50;;;;;;;2.95;1.70;;;8.40;99.90;;;;;;4951938;28;20109;-87
2023/12/20 07:48:16;;;;;;;3.58;1.88;;;8.40;99.90;;;;;;4951864;28;20034;-85
2023/12/20 07:50:42;;;;;;;2.65;1.73;;;8.40;99.90;;;;;;4951921;28;20031;-85
2023/12/20 07:53:07;;;;;;;2.53;1.65;;;8.40;99.90;;;;;;4970040;28;20042;-86
2023/12/20 07:55:34;;;;;;;2.83;1.63;;;8.30;99.90;;;;;;4952660;28;20113;-85
2023/12/20 07:58:00;;;;;;;1.90;1.63;;;8.40;99.90;;;;;;4970546;28;20073;-85
2023/12/20 08:00:25;;;;;;;3.08;1.85;;;8.40;99.90;;;;;;4970650;28;20023;-86
2023/12/20 08:02:51;;;;;;;2.20;1.73;;;8.40;99.90;;;;;;4955570;28;20029;-86
2023/12/20 08:05:16;;;;;;;4.20;2.10;;;8.40;99.90;;;;;;4970289;28;20035;-85
2023/12/20 08:07:42;;;;;;;8.52;2.20;;;8.30;99.90;;;;;;4970936;28;20033;-86
2023/12/20 08:10:08;;;;;;;2.80;1.70;;;8.40;99.90;;;;;;4968375;28;20031;-86
2023/12/20 08:12:34;;;;;;;2.83;2.10;;;8.40;99.90;;;;;;4953149;28;20054;-85
2023/12/20 08:14:59;;;;;;;2.35;1.80;;;8.40;99.90;;;;;;4969591;28;20021;-85
2023/12/20 08:17:25;;;;;;;3.10;2.38;;;8.40;99.90;;;;;;4950639;28;20029;-86
2023/12/20 08:19:51;;;;;;;3.08;2.00;;;8.40;99.90;;;;;;4955206;28;20019;-85
2023/12/20 08:22:16;;;;;;;2.13;1.92;;;8.40;99.90;;;;;;4970284;28;20027;-84
2023/12/20 08:24:42;;;;;;;2.80;2.30;;;8.40;99.90;;;;;;4969576;28;20082;-88
2023/12/20 08:27:09;;;;;;;3.25;2.58;;;8.40;99.90;;;;;;4953278;28;20049;-87
2023/12/20 08:29:35;;;;;;;3.75;2.47;;;8.40;99.90;;;;;;4970204;28;20015;-86
2023/12/20 08:32:00;;;;;;;3.75;2.35;;;8.40;99.90;;;;;;4952595;28;20029;-86
2023/12/20 08:34:26;;;;;;;5.20;2.83;;;8.40;99.90;;;;;;4970260;28;20069;-86
2023/12/20 08:36:52;;;;;;;4.63;3.10;;;8.40;99.90;;;;;;4952586;28;20026;-84
2023/12/20 08:39:17;;;;;;;4.47;2.63;;;8.40;99.90;;;;;;4954815;28;20037;-86
2023/12/20 08:41:43;;;;;;;4.55;3.22;;;8.40;99.90;;;;;;4956253;28;20019;-86
2023/12/20 08:44:09;;;;;;;5.22;3.60;;;8.50;99.90;;;;;;4966893;28;20098;-84
2023/12/20 08:46:35;;;;;;;4.18;3.15;;;8.50;99.90;;;;;;4953980;28;20110;-86
2023/12/20 08:49:01;;;;;;;7.38;3.03;;;8.50;99.90;;;;;;4970584;28;20102;-87
2023/12/20 08:51:27;;;;;;;5.18;3.33;;;8.50;99.90;;;;;;4969900;28;20019;-86
2023/12/20 08:53:53;;;;;;;5.45;3.28;;;8.50;99.90;;;;;;4952822;28;20011;-86
2023/12/20 08:56:19;;;;;;;5.03;3.40;;;8.50;99.90;;;;;;4948986;28;20107;-85
2023/12/20 08:58:46;;;;;;;4.15;2.85;;;8.50;99.90;;;;;;4969684;28;20085;-85
2023/12/20 09:01:12;;;;;;;4.10;2.60;;;8.50;99.90;;;;;;4952997;28;20034;-84
2023/12/20 09:03:37;;;;;;;7.30;3.35;;;8.50;99.90;;;;;;4967636;28;20023;-87
2023/12/20 09:06:03;;;;;;;5.90;3.38;;;8.50;99.90;;;;;;4964211;28;20015;-85
2023/12/20 09:08:29;;;;;;;5.60;3.58;;;8.50;99.90;;;;;;4950738;28;20401;-86
2023/12/20 09:10:54;;;;;;;5.72;3.08;;;8.50;99.90;;;;;;4970123;28;20087;-85
2023/12/20 09:13:20;;;;;;;4.45;3.30;;;8.50;99.90;;;;;;4953705;28;20038;-85
2023/12/20 09:15:46;;;;;;;6.60;3.50;;;8.50;99.90;;;;;;4954056;28;20026;-85
2023/12/20 09:18:12;;;;;;;4.13;3.03;;;8.60;99.90;;;;;;4970587;28;20031;-85
2023/12/20 09:20:37;;;;;;;5.32;3.30;;;8.60;99.90;;;;;;4956300;28;20046;-87
2023/12/20 09:23:03;;;;;;;4.20;3.05;;;8.60;99.90;;;;;;4973846;28;20030;-86
2023/12/20 09:25:29;;;;;;;5.03;2.90;;;8.70;99.90;;;;;;4956620;28;20035;-86
2023/12/20 09:27:55;;;;;;;5.30;3.05;;;8.70;99.90;;;;;;4956742;28;20378;-86
2023/12/20 09:30:21;;;;;;;4.72;2.85;;;8.60;99.90;;;;;;4955942;28;20035;-86
2023/12/20 09:32:46;;;;;;;4.65;2.85;;;8.60;99.90;;;;;;4969464;28;20023;-87
2023/12/20 09:35:12;;;;;;;4.18;3.00;;;8.60;99.90;;;;;;4956385;28;20027;-86
2023/12/20 09:37:38;;;;;;;4.00;2.78;;;8.50;99.90;;;;;;4957021;28;20034;-86
2023/12/20 09:40:04;;;;;;;5.35;2.97;;;8.50;99.90;;;;;;4972569;28;20548;-85
2023/12/20 09:43:10;;;;;;;2.78;2.20;;;8.50;99.90;;;;;;4954959;28;20038;-85
2023/12/20 09:45:36;;;;;;;1.20;1.02;;;8.50;99.90;;;;;;4958360;28;20058;-84
2023/12/20 09:48:04;;;;;;;2.03;1.15;;;10.10;99.90;;;;;;4970523;28;20094;-85
2023/12/20 09:50:32;;;;;;;1.30;1.20;;;9.70;99.90;;;;;;4972005;28;20033;-83
2023/12/20 09:52:59;;;;;;;1.27;1.10;;;9.10;99.90;;;;;;4968966;28;20619;-84
2023/12/20 09:55:25;;;;;;;1.02;0.95;;;8.90;99.90;;;;;;4969629;28;20085;-84
2023/12/20 09:57:50;;;;;;;0.90;0.90;;;8.70;99.90;;;;;;4954884;28;20030;-85
2023/12/20 10:00:19;;;;;;;1.13;1.00;;;8.70;99.90;;;;;;4972756;28;20606;-84
2023/12/20 10:02:57;;;;;;;1.70;1.10;;;8.60;99.90;;;;;;4972707;28;20023;-84
2023/12/20 10:05:27;;;;;;;0.70;0.70;;;8.60;99.90;;;;;;4970900;28;20023;-83
2023/12/20 10:07:52;;;;;;;0.98;0.93;;;8.60;99.90;;;;;;4972450;28;20026;-85
2023/12/20 10:10:18;;;;;;;3.92;0.80;;;8.60;99.90;;;;;;4969765;28;20039;-83
2023/12/20 10:13:10;;;;;;;2.35;0.90;;;8.60;99.90;;;;;;4954818;28;20117;-85
2023/12/20 10:15:37;;;;;;;0.82;0.82;;;8.60;99.90;;;;;;4972103;28;20563;-83
2023/12/20 10:18:03;;;;;;;0.60;0.60;;;8.60;99.90;;;;;;4972162;28;20026;-83
2023/12/20 10:20:30;;;;;;;0.52;0.52;;;8.60;99.90;;;;;;4954684;28;20022;-83
2023/12/20 10:22:56;;;;;;;0.85;0.70;;;8.60;99.90;;;;;;4955931;28;20019;-84
2023/12/20 10:25:22;;;;;;;0.90;0.90;;;8.60;99.90;;;;;;4971853;28;20015;-83
2023/12/20 10:27:49;;;;;;;0.68;0.68;;;8.60;99.90;;;;;;4972387;28;20026;-84
2023/12/20 10:30:14;;;;;;;1.33;0.70;;;8.60;99.90;;;;;;4953183;28;20027;-83
2023/12/20 10:32:43;;;;;;;0.63;0.63;;;8.60;99.90;;;;;;4970431;28;20041;-82
2023/12/20 10:35:09;;;;;;;1.27;0.60;;;8.60;99.90;;;;;;4972140;28;20035;-84
2023/12/20 10:37:38;;;;;;;0.85;0.80;;;8.50;99.90;;;;;;4971815;28;20015;-83
2023/12/20 10:40:05;;;;;;;0.60;0.60;;;8.50;99.90;;;;;;4954043;28;20232;-85
2023/12/20 10:42:33;;;;;;;0.50;0.50;;;8.50;99.90;;;;;;4971682;28;20085;-83
2023/12/20 10:45:00;;;;;;;0.63;0.60;;;8.50;99.90;;;;;;4956242;28;20023;-83
2023/12/20 10:47:26;;;;;;;0.60;0.60;;;8.50;99.90;;;;;;4952978;28;20035;-83
2023/12/20 10:49:52;;;;;;;4.97;0.90;;;8.50;99.90;;;;;;4955343;28;20447;-82
2023/12/20 10:52:18;;;;;;;0.80;0.80;;;8.50;99.90;;;;;;4971955;28;20027;-83
2023/12/20 10:54:44;;;;;;;0.50;0.50;;;8.50;99.90;;;;;;4970205;28;20039;-83
2023/12/20 10:57:11;;;;;;;0.70;0.70;;;8.50;99.90;;;;;;4969540;28;20038;-83
2023/12/20 10:59:38;;;;;;;1.52;0.80;;;8.50;99.90;;;;;;4951214;28;20027;-83
2023/12/20 11:02:07;;;;;;;0.70;0.70;;;8.50;99.90;;;;;;4968662;28;20476;-83
2023/12/20 11:04:59;;;;;;;0.77;0.77;;;8.50;99.90;;;;;;4954210;28;20054;-83
2023/12/20 11:07:56;;;;;;;1.83;1.00;;;8.60;99.90;;;;;;4950609;28;20674;-84
2023/12/20 11:10:28;;;;;;;0.85;0.85;;;8.60;99.90;;;;;;4948143;28;20493;-82
2023/12/20 11:13:10;;;;;;;3.25;1.08;;;8.60;99.90;;;;;;4965869;28;20018;-82
2023/12/20 11:15:37;;;;;;;3.53;1.75;;;8.70;99.90;;;;;;4950181;28;20027;-84
2023/12/20 11:18:05;;;;;;;3.35;1.20;;;8.80;99.90;;;;;;4967422;28;20097;-83
2023/12/20 11:20:40;;;;;;;3.83;0.90;;;8.80;99.90;;;;;;4953633;28;20030;-83
2023/12/20 11:23:08;;;;;;;2.63;1.05;;;8.90;99.90;;;;;;4967324;28;20015;-83
2023/12/20 11:25:53;;;;;;;3.22;0.90;;;9.00;99.90;;;;;;4962708;28;20500;-84
2023/12/20 11:28:24;;;;;;;2.88;1.08;;;9.10;99.90;;;;;;4969823;28;20117;-84
2023/12/20 11:30:57;;;;;;;1.98;1.25;;;9.10;99.90;;;;;;4954097;28;20018;-84
2023/12/20 11:33:24;;;;;;;2.78;1.52;;;9.20;99.90;;;;;;4947240;28;20102;-84
2023/12/20 11:35:51;;;;;;;5.47;1.33;;;9.30;99.90;;;;;;4952785;28;20776;-86
2023/12/20 11:38:16;;;;;;;4.25;1.13;;;9.30;99.90;;;;;;4969582;28;20370;-82
2023/12/20 11:40:43;;;;;;;1.65;1.02;;;9.30;99.90;;;;;;4966784;28;20027;-82
2023/12/20 11:43:09;;;;;;;0.80;0.80;;;9.20;99.90;;;;;;4970431;28;20026;-85
2023/12/20 11:45:35;;;;;;;2.97;1.33;;;9.20;99.90;;;;;;4967885;28;20073;-83
2023/12/20 11:48:02;;;;;;;3.35;1.45;;;9.30;99.90;;;;;;4949965;28;20081;-84
2023/12/20 11:50:29;;;;;;;2.60;1.27;;;9.30;99.90;;;;;;4946603;28;20114;-84
2023/12/20 11:52:55;;;;;;;2.67;1.17;;;9.20;99.90;;;;;;4971050;28;20023;-83
2023/12/20 11:55:24;;;;;;;1.67;1.10;;;9.20;99.90;;;;;;4970818;28;20035;-84
2023/12/20 11:57:50;;;;;;;3.58;1.23;;;9.10;99.90;;;;;;4968146;28;20541;-82
2023/12/20 12:00:17;;;;;;;1.80;1.30;;;9.20;99.90;;;;;;4966604;28;20111;-83
2023/12/20 12:02:43;;;;;;;5.40;1.60;;;9.10;99.90;;;;;;4963486;28;20024;-84
2023/12/20 12:05:08;;;;;;;5.80;1.92;;;9.00;99.90;;;;;;4952957;28;20034;-84
2023/12/20 12:07:34;;;;;;;2.28;1.30;;;9.00;99.90;;;;;;4970004;28;20027;-84
2023/12/20 12:10:00;;;;;;;2.22;1.45;;;9.00;99.90;;;;;;4951238;28;20023;-83
2023/12/20 12:12:27;;;;;;;1.42;1.10;;;8.90;99.90;;;;;;4967511;28;20146;-86
2023/12/20 12:14:54;;;;;;;1.40;1.05;;;9.00;99.90;;;;;;4957309;28;20039;-89
2023/12/20 12:17:19;;;;;;;2.60;1.20;;;8.90;99.90;;;;;;4958420;28;20058;-90
2023/12/20 12:19:46;;;;;;;3.20;1.50;;;8.90;99.90;;;;;;4953336;28;20135;-86
2023/12/20 12:22:14;;;;;;;4.82;1.75;;;8.90;99.90;;;;;;4956596;28;20116;-88
2023/12/20 12:24:44;;;;;;;3.38;1.67;;;8.90;99.90;;;;;;4963113;28;20046;-87
2023/12/20 12:27:09;;;;;;;4.20;1.25;;;8.80;99.90;;;;;;4947600;29;20027;-88
2023/12/20 12:29:35;;;;;;;2.85;1.23;;;8.80;99.90;;;;;;4950876;28;20521;-87
2023/12/20 12:32:04;;;;;;;2.33;1.20;;;8.80;99.90;;;;;;4953008;28;20031;-88
2023/12/20 12:34:30;;;;;;;3.83;1.42;;;8.80;99.90;;;;;;4969168;28;20050;-87
2023/12/20 12:36:57;;;;;;;4.68;1.00;;;8.80;99.90;;;;;;4970426;28;20113;-85
2023/12/20 12:39:27;;;;;;;1.48;1.20;;;8.90;99.90;;;;;;4947760;28;20034;-86
2023/12/20 12:41:53;;;;;;;1.93;1.23;;;8.80;99.90;;;;;;4966686;28;20034;-88
2023/12/20 12:44:19;;;;;;;1.67;1.50;;;8.80;99.90;;;;;;4970709;28;20034;-88
2023/12/20 12:46:53;;;;;;;6.75;1.48;;;8.80;99.90;;;;;;4971385;28;20030;-89
2023/12/20 12:49:19;;;;;;;2.22;1.20;;;8.90;99.90;;;;;;4959887;28;20057;-89
2023/12/20 12:51:45;;;;;;;1.15;1.05;;;8.80;99.90;;;;;;4949153;28;20024;-84
2023/12/20 12:54:10;;;;;;;1.73;1.08;;;8.80;99.90;;;;;;4954443;28;20031;-87